sensor_id;sensor_type;location;lat;lon;timestamp;pressure;altitude;pressure_sealevel;temperature;humidity
23417;BME280;11881;42.432;25.632;2024-01-06T00:00:29;99215.41;;;8.84;100.00
23417;BME280;11881;42.432;25.632;2024-01-06T00:02:55;99224.53;;;8.91;100.00
23417;BME280;11881;42.432;25.632;2024-01-06T00:05:20;99243.38;;;8.88;100.00
23417;BME280;11881;42.432;25.632;2024-01-06T00:07:46;99240.00;;;8.86;100.00
23417;BME280;11881;42.432;25.632;2024-01-06T00:10:11;99242.78;;;8.85;100.00
23417;BME280;11881;42.432;25.632;2024-01-06T00:12:37;99235.28;;;8.90;100.00
23417;BME280;11881;42.432;25.632;2024-01-06T00:15:03;99228.34;;;8.77;100.00
23417;BME280;11881;42.432;25.632;2024-01-06T00:17:29;99222.53;;;8.84;100.00
23417;BME280;11881;42.432;25.632;2024-01-06T00:19:54;99220.94;;;8.81;100.00
23417;BME280;11881;42.432;25.632;2024-01-06T00:22:20;99217.72;;;8.77;100.00
23417;BME280;11881;42.432;25.632;2024-01-06T00:24:46;99211.91;;;8.84;100.00
23417;BME280;11881;42.432;25.632;2024-01-06T00:27:12;99209.38;;;8.82;100.00
23417;BME280;11881;42.432;25.632;2024-01-06T00:29:38;99216.66;;;8.69;100.00
23417;BME280;11881;42.432;25.632;2024-01-06T00:32:05;99216.81;;;8.67;100.00
23417;BME280;11881;42.432;25.632;2024-01-06T00:34:30;99209.34;;;8.61;100.00
23417;BME280;11881;42.432;25.632;2024-01-06T00:36:56;99200.50;;;8.72;100.00
23417;BME280;11881;42.432;25.632;2024-01-06T00:39:21;99206.31;;;8.66;100.00
23417;BME280;11881;42.432;25.632;2024-01-06T00:41:47;99202.63;;;8.78;100.00
23417;BME280;11881;42.432;25.632;2024-01-06T00:44:12;99197.44;;;8.76;100.00
23417;BME280;11881;42.432;25.632;2024-01-06T00:46:39;99206.97;;;8.79;100.00
23417;BME280;11881;42.432;25.632;2024-01-06T00:49:04;99206.81;;;8.80;100.00
23417;BME280;11881;42.432;25.632;2024-01-06T00:51:30;99204.00;;;8.72;100.00
23417;BME280;11881;42.432;25.632;2024-01-06T00:53:55;99202.88;;;8.75;100.00
23417;BME280;11881;42.432;25.632;2024-01-06T00:56:22;99195.69;;;8.87;100.00
23417;BME280;11881;42.432;25.632;2024-01-06T00:58:47;99176.97;;;8.88;100.00
23417;BME280;11881;42.432;25.632;2024-01-06T01:01:13;99168.88;;;8.90;100.00
23417;BME280;11881;42.432;25.632;2024-01-06T01:03:38;99175.84;;;8.91;100.00
23417;BME280;11881;42.432;25.632;2024-01-06T01:06:03;99177.97;;;8.87;100.00
23417;BME280;11881;42.432;25.632;2024-01-06T01:08:29;99190.25;;;8.88;100.00
23417;BME280;11881;42.432;25.632;2024-01-06T01:10:56;99197.41;;;8.88;100.00
23417;BME280;11881;42.432;25.632;2024-01-06T01:13:22;99192.97;;;8.77;100.00
23417;BME280;11881;42.432;25.632;2024-01-06T01:15:48;99191.63;;;8.83;100.00
23417;BME280;11881;42.432;25.632;2024-01-06T01:18:13;99187.47;;;8.90;100.00
23417;BME280;11881;42.432;25.632;2024-01-06T01:20:39;99177.28;;;8.95;100.00
23417;BME280;11881;42.432;25.632;2024-01-06T01:23:07;99170.69;;;8.89;100.00
23417;BME280;11881;42.432;25.632;2024-01-06T01:25:32;99160.59;;;8.83;100.00
23417;BME280;11881;42.432;25.632;2024-01-06T01:27:58;99167.81;;;8.81;100.00
23417;BME280;11881;42.432;25.632;2024-01-06T01:30:24;99168.16;;;8.88;100.00
23417;BME280;11881;42.432;25.632;2024-01-06T01:32:49;99168.59;;;8.93;100.00
23417;BME280;11881;42.432;25.632;2024-01-06T01:35:14;99176.63;;;9.02;100.00
23417;BME280;11881;42.432;25.632;2024-01-06T01:37:40;99160.97;;;8.99;100.00
23417;BME280;11881;42.432;25.632;2024-01-06T01:40:06;99167.88;;;8.91;100.00
23417;BME280;11881;42.432;25.632;2024-01-06T01:42:33;99160.22;;;8.97;100.00
23417;BME280;11881;42.432;25.632;2024-01-06T01:44:58;99162.88;;;8.97;100.00
23417;BME280;11881;42.432;25.632;2024-01-06T01:47:24;99151.03;;;8.80;100.00
23417;BME280;11881;42.432;25.632;2024-01-06T01:49:49;99150.78;;;8.84;100.00
23417;BME280;11881;42.432;25.632;2024-01-06T01:52:15;99142.88;;;8.93;100.00
23417;BME280;11881;42.432;25.632;2024-01-06T01:54:42;99133.50;;;8.89;100.00
23417;BME280;11881;42.432;25.632;2024-01-06T01:57:08;99128.44;;;8.86;100.00
23417;BME280;11881;42.432;25.632;2024-01-06T01:59:36;99131.16;;;8.96;100.00
23417;BME280;11881;42.432;25.632;2024-01-06T02:02:02;99141.41;;;8.79;100.00
23417;BME280;11881;42.432;25.632;2024-01-06T02:04:27;99131.22;;;8.85;100.00
23417;BME280;11881;42.432;25.632;2024-01-06T02:06:53;99124.31;;;8.72;100.00
23417;BME280;11881;42.432;25.632;2024-01-06T02:09:19;99128.09;;;8.70;100.00
23417;BME280;11881;42.432;25.632;2024-01-06T02:11:44;99127.94;;;8.71;100.00
23417;BME280;11881;42.432;25.632;2024-01-06T02:14:10;99119.75;;;8.63;100.00
23417;BME280;11881;42.432;25.632;2024-01-06T02:16:35;99114.81;;;8.49;100.00
23417;BME280;11881;42.432;25.632;2024-01-06T02:19:01;99117.00;;;8.65;100.00
23417;BME280;11881;42.432;25.632;2024-01-06T02:21:48;99110.84;;;8.43;100.00
23417;BME280;11881;42.432;25.632;2024-01-06T02:24:13;99108.34;;;8.42;100.00
23417;BME280;11881;42.432;25.632;2024-01-06T02:26:39;99112.22;;;8.38;100.00
23417;BME280;11881;42.432;25.632;2024-01-06T02:29:04;99112.97;;;8.49;100.00
23417;BME280;11881;42.432;25.632;2024-01-06T02:31:30;99104.78;;;8.52;100.00
23417;BME280;11881;42.432;25.632;2024-01-06T02:33:55;99101.44;;;8.39;100.00
23417;BME280;11881;42.432;25.632;2024-01-06T02:36:21;99116.31;;;8.31;100.00
23417;BME280;11881;42.432;25.632;2024-01-06T02:38:46;99112.94;;;8.28;100.00
23417;BME280;11881;42.432;25.632;2024-01-06T02:41:11;99104.38;;;8.36;100.00
23417;BME280;11881;42.432;25.632;2024-01-06T02:43:37;99108.34;;;8.42;100.00
23417;BME280;11881;42.432;25.632;2024-01-06T02:46:02;99101.91;;;8.44;100.00
23417;BME280;11881;42.432;25.632;2024-01-06T02:48:28;99104.09;;;8.39;100.00
23417;BME280;11881;42.432;25.632;2024-01-06T02:50:56;99102.22;;;8.51;100.00
23417;BME280;11881;42.432;25.632;2024-01-06T02:53:21;99105.22;;;8.37;100.00
23417;BME280;11881;42.432;25.632;2024-01-06T02:55:47;99114.09;;;8.47;100.00
23417;BME280;11881;42.432;25.632;2024-01-06T02:58:12;99115.19;;;8.44;100.00
23417;BME280;11881;42.432;25.632;2024-01-06T03:00:38;99103.06;;;8.51;100.00
23417;BME280;11881;42.432;25.632;2024-01-06T03:03:03;99098.03;;;8.48;100.00
23417;BME280;11881;42.432;25.632;2024-01-06T03:05:29;99105.16;;;8.48;100.00
23417;BME280;11881;42.432;25.632;2024-01-06T03:07:54;99106.69;;;8.50;100.00
23417;BME280;11881;42.432;25.632;2024-01-06T03:10:20;99104.31;;;8.47;100.00
23417;BME280;11881;42.432;25.632;2024-01-06T03:12:46;99115.31;;;8.43;100.00
23417;BME280;11881;42.432;25.632;2024-01-06T03:15:11;99120.63;;;8.43;100.00
23417;BME280;11881;42.432;25.632;2024-01-06T03:17:37;99115.03;;;8.46;100.00
23417;BME280;11881;42.432;25.632;2024-01-06T03:20:03;99108.38;;;8.51;100.00
23417;BME280;11881;42.432;25.632;2024-01-06T03:22:29;99108.97;;;8.55;100.00
23417;BME280;11881;42.432;25.632;2024-01-06T03:24:55;99110.56;;;8.46;100.00
23417;BME280;11881;42.432;25.632;2024-01-06T03:27:20;99101.13;;;8.53;100.00
23417;BME280;11881;42.432;25.632;2024-01-06T03:29:46;99103.41;;;8.58;100.00
23417;BME280;11881;42.432;25.632;2024-01-06T03:32:11;99102.53;;;8.58;100.00
23417;BME280;11881;42.432;25.632;2024-01-06T03:34:37;99085.38;;;8.62;100.00
23417;BME280;11881;42.432;25.632;2024-01-06T03:37:03;99084.38;;;8.53;100.00
23417;BME280;11881;42.432;25.632;2024-01-06T03:39:28;99079.00;;;8.64;100.00
23417;BME280;11881;42.432;25.632;2024-01-06T03:41:54;99077.69;;;8.59;100.00
23417;BME280;11881;42.432;25.632;2024-01-06T03:44:19;99090.38;;;8.55;100.00
23417;BME280;11881;42.432;25.632;2024-01-06T03:46:44;99086.75;;;8.56;100.00
23417;BME280;11881;42.432;25.632;2024-01-06T03:49:10;99096.03;;;8.41;100.00
23417;BME280;11881;42.432;25.632;2024-01-06T03:51:35;99095.75;;;8.44;100.00
23417;BME280;11881;42.432;25.632;2024-01-06T03:54:01;99099.81;;;8.27;100.00
23417;BME280;11881;42.432;25.632;2024-01-06T03:56:26;99091.59;;;8.30;100.00
23417;BME280;11881;42.432;25.632;2024-01-06T03:58:52;99085.88;;;8.35;100.00
23417;BME280;11881;42.432;25.632;2024-01-06T04:01:17;99090.03;;;8.27;100.00
23417;BME280;11881;42.432;25.632;2024-01-06T04:03:43;99087.00;;;8.32;100.00
23417;BME280;11881;42.432;25.632;2024-01-06T04:06:08;99085.97;;;8.44;100.00
23417;BME280;11881;42.432;25.632;2024-01-06T04:08:35;99096.63;;;8.33;100.00
23417;BME280;11881;42.432;25.632;2024-01-06T04:11:01;99090.53;;;8.21;100.00
23417;BME280;11881;42.432;25.632;2024-01-06T04:13:27;99097.81;;;8.19;100.00
23417;BME280;11881;42.432;25.632;2024-01-06T04:15:53;99102.50;;;8.16;100.00
23417;BME280;11881;42.432;25.632;2024-01-06T04:18:19;99106.78;;;8.28;100.00
23417;BME280;11881;42.432;25.632;2024-01-06T04:20:44;99096.41;;;8.36;100.00
23417;BME280;11881;42.432;25.632;2024-01-06T04:23:10;99093.66;;;8.26;100.00
23417;BME280;11881;42.432;25.632;2024-01-06T04:25:35;99096.81;;;8.20;100.00
23417;BME280;11881;42.432;25.632;2024-01-06T04:28:00;99081.97;;;7.97;100.00
23417;BME280;11881;42.432;25.632;2024-01-06T04:30:26;99083.47;;;8.11;100.00
23417;BME280;11881;42.432;25.632;2024-01-06T04:32:51;99090.03;;;8.07;100.00
23417;BME280;11881;42.432;25.632;2024-01-06T04:35:19;99093.72;;;8.15;100.00
23417;BME280;11881;42.432;25.632;2024-01-06T04:37:45;99094.81;;;8.13;100.00
23417;BME280;11881;42.432;25.632;2024-01-06T04:40:11;99102.03;;;8.11;100.00
23417;BME280;11881;42.432;25.632;2024-01-06T04:42:36;99102.66;;;8.14;100.00
23417;BME280;11881;42.432;25.632;2024-01-06T04:45:02;99099.53;;;8.09;100.00
23417;BME280;11881;42.432;25.632;2024-01-06T04:47:28;99107.31;;;8.22;100.00
23417;BME280;11881;42.432;25.632;2024-01-06T04:49:55;99118.09;;;8.09;100.00
23417;BME280;11881;42.432;25.632;2024-01-06T04:52:21;99125.69;;;8.14;100.00
23417;BME280;11881;42.432;25.632;2024-01-06T04:54:46;99115.41;;;8.20;100.00
23417;BME280;11881;42.432;25.632;2024-01-06T04:57:12;99097.28;;;8.25;100.00
23417;BME280;11881;42.432;25.632;2024-01-06T04:59:37;99111.13;;;8.29;100.00
23417;BME280;11881;42.432;25.632;2024-01-06T05:02:04;99116.69;;;8.26;100.00
23417;BME280;11881;42.432;25.632;2024-01-06T05:04:30;99110.19;;;8.30;100.00
23417;BME280;11881;42.432;25.632;2024-01-06T05:06:57;99106.47;;;8.21;100.00
23417;BME280;11881;42.432;25.632;2024-01-06T05:09:23;99106.22;;;8.24;100.00
23417;BME280;11881;42.432;25.632;2024-01-06T05:11:48;99108.75;;;8.26;100.00
23417;BME280;11881;42.432;25.632;2024-01-06T05:14:13;99111.91;;;8.20;100.00
23417;BME280;11881;42.432;25.632;2024-01-06T05:16:39;99108.75;;;7.94;100.00
23417;BME280;11881;42.432;25.632;2024-01-06T05:19:05;99100.50;;;8.08;100.00
23417;BME280;11881;42.432;25.632;2024-01-06T05:21:30;99110.13;;;8.09;100.00
23417;BME280;11881;42.432;25.632;2024-01-06T05:23:56;99114.78;;;7.96;100.00
23417;BME280;11881;42.432;25.632;2024-01-06T05:26:22;99106.69;;;7.97;100.00
23417;BME280;11881;42.432;25.632;2024-01-06T05:28:48;99097.91;;;7.97;100.00
23417;BME280;11881;42.432;25.632;2024-01-06T05:31:13;99101.25;;;7.99;100.00
23417;BME280;11881;42.432;25.632;2024-01-06T05:33:39;99094.53;;;7.95;100.00
23417;BME280;11881;42.432;25.632;2024-01-06T05:36:04;99101.34;;;8.09;100.00
23417;BME280;11881;42.432;25.632;2024-01-06T05:38:30;99108.94;;;8.13;100.00
23417;BME280;11881;42.432;25.632;2024-01-06T05:40:55;99111.41;;;7.94;100.00
23417;BME280;11881;42.432;25.632;2024-01-06T05:43:21;99109.72;;;7.93;100.00
23417;BME280;11881;42.432;25.632;2024-01-06T05:45:46;99108.88;;;7.92;100.00
23417;BME280;11881;42.432;25.632;2024-01-06T05:48:12;99108.25;;;8.00;100.00
23417;BME280;11881;42.432;25.632;2024-01-06T05:50:38;99105.47;;;8.02;100.00
23417;BME280;11881;42.432;25.632;2024-01-06T05:53:07;99109.44;;;8.07;100.00
23417;BME280;11881;42.432;25.632;2024-01-06T05:55:32;99123.25;;;7.90;100.00
23417;BME280;11881;42.432;25.632;2024-01-06T05:57:58;99124.72;;;7.83;100.00
23417;BME280;11881;42.432;25.632;2024-01-06T06:00:23;99126.00;;;7.88;100.00
23417;BME280;11881;42.432;25.632;2024-01-06T06:02:49;99121.50;;;8.00;100.00
23417;BME280;11881;42.432;25.632;2024-01-06T06:05:14;99126.19;;;8.08;100.00
23417;BME280;11881;42.432;25.632;2024-01-06T06:07:40;99119.81;;;7.99;100.00
23417;BME280;11881;42.432;25.632;2024-01-06T06:10:10;99122.09;;;8.04;100.00
23417;BME280;11881;42.432;25.632;2024-01-06T06:12:36;99127.41;;;8.04;100.00
23417;BME280;11881;42.432;25.632;2024-01-06T06:15:03;99114.38;;;8.12;100.00
23417;BME280;11881;42.432;25.632;2024-01-06T06:17:30;99123.16;;;8.12;100.00
23417;BME280;11881;42.432;25.632;2024-01-06T06:19:56;99119.72;;;8.00;100.00
23417;BME280;11881;42.432;25.632;2024-01-06T06:22:22;99120.63;;;8.11;100.00
23417;BME280;11881;42.432;25.632;2024-01-06T06:24:48;99118.94;;;8.10;100.00
23417;BME280;11881;42.432;25.632;2024-01-06T06:27:13;99114.66;;;7.97;100.00
23417;BME280;11881;42.432;25.632;2024-01-06T06:29:39;99118.69;;;8.13;100.00
23417;BME280;11881;42.432;25.632;2024-01-06T06:32:05;99112.75;;;8.20;100.00
23417;BME280;11881;42.432;25.632;2024-01-06T06:34:30;99113.22;;;8.25;100.00
23417;BME280;11881;42.432;25.632;2024-01-06T06:36:56;99117.53;;;8.26;100.00
23417;BME280;11881;42.432;25.632;2024-01-06T06:39:21;99121.72;;;8.29;100.00
23417;BME280;11881;42.432;25.632;2024-01-06T06:41:46;99107.53;;;8.30;100.00
23417;BME280;11881;42.432;25.632;2024-01-06T06:44:12;99116.84;;;8.24;100.00
23417;BME280;11881;42.432;25.632;2024-01-06T06:46:38;99109.06;;;8.33;100.00
23417;BME280;11881;42.432;25.632;2024-01-06T06:49:04;99109.44;;;8.28;100.00
23417;BME280;11881;42.432;25.632;2024-01-06T06:51:30;99108.09;;;8.34;100.00
23417;BME280;11881;42.432;25.632;2024-01-06T06:53:55;99106.41;;;8.33;100.00
23417;BME280;11881;42.432;25.632;2024-01-06T06:56:22;99111.50;;;8.36;100.00
23417;BME280;11881;42.432;25.632;2024-01-06T06:58:48;99101.25;;;8.52;100.00
23417;BME280;11881;42.432;25.632;2024-01-06T07:01:14;99100.03;;;8.56;100.00
23417;BME280;11881;42.432;25.632;2024-01-06T07:03:40;99097.56;;;8.64;100.00
23417;BME280;11881;42.432;25.632;2024-01-06T07:06:06;99103.72;;;8.65;100.00
23417;BME280;11881;42.432;25.632;2024-01-06T07:08:31;99100.66;;;8.69;100.00
23417;BME280;11881;42.432;25.632;2024-01-06T07:10:57;99094.56;;;8.78;100.00
23417;BME280;11881;42.432;25.632;2024-01-06T07:13:22;99090.00;;;8.90;100.00
23417;BME280;11881;42.432;25.632;2024-01-06T07:15:48;99093.56;;;9.00;100.00
23417;BME280;11881;42.432;25.632;2024-01-06T07:18:13;99087.31;;;9.11;100.00
23417;BME280;11881;42.432;25.632;2024-01-06T07:20:38;99082.59;;;9.24;100.00
23417;BME280;11881;42.432;25.632;2024-01-06T07:23:04;99084.56;;;9.32;100.00
23417;BME280;11881;42.432;25.632;2024-01-06T07:25:30;99070.72;;;9.38;100.00
23417;BME280;11881;42.432;25.632;2024-01-06T07:27:55;99076.63;;;9.42;100.00
23417;BME280;11881;42.432;25.632;2024-01-06T07:30:21;99071.16;;;9.33;100.00
23417;BME280;11881;42.432;25.632;2024-01-06T07:32:46;99063.03;;;9.35;100.00
23417;BME280;11881;42.432;25.632;2024-01-06T07:35:13;99079.41;;;9.40;100.00
23417;BME280;11881;42.432;25.632;2024-01-06T07:37:39;99079.97;;;9.44;100.00
23417;BME280;11881;42.432;25.632;2024-01-06T07:40:05;99080.69;;;9.55;100.00
23417;BME280;11881;42.432;25.632;2024-01-06T07:42:30;99077.75;;;9.49;100.00
23417;BME280;11881;42.432;25.632;2024-01-06T07:44:56;99068.25;;;9.56;100.00
23417;BME280;11881;42.432;25.632;2024-01-06T07:47:22;99054.53;;;9.60;100.00
23417;BME280;11881;42.432;25.632;2024-01-06T07:49:48;99069.09;;;9.66;100.00
23417;BME280;11881;42.432;25.632;2024-01-06T07:52:13;99068.41;;;9.64;100.00
23417;BME280;11881;42.432;25.632;2024-01-06T07:54:39;99072.88;;;9.73;100.00
23417;BME280;11881;42.432;25.632;2024-01-06T07:57:04;99070.09;;;9.75;100.00
23417;BME280;11881;42.432;25.632;2024-01-06T07:59:30;99068.97;;;9.87;100.00
23417;BME280;11881;42.432;25.632;2024-01-06T08:01:55;99070.22;;;10.02;100.00
23417;BME280;11881;42.432;25.632;2024-01-06T08:04:21;99064.66;;;10.25;100.00
23417;BME280;11881;42.432;25.632;2024-01-06T08:06:46;99061.00;;;10.35;100.00
23417;BME280;11881;42.432;25.632;2024-01-06T08:09:12;99059.75;;;10.30;100.00
23417;BME280;11881;42.432;25.632;2024-01-06T08:11:37;99052.84;;;10.37;100.00
23417;BME280;11881;42.432;25.632;2024-01-06T08:14:04;99062.09;;;10.43;100.00
23417;BME280;11881;42.432;25.632;2024-01-06T08:16:29;99057.19;;;10.48;100.00
23417;BME280;11881;42.432;25.632;2024-01-06T08:18:55;99050.03;;;10.48;100.00
23417;BME280;11881;42.432;25.632;2024-01-06T08:21:20;99045.41;;;10.50;100.00
23417;BME280;11881;42.432;25.632;2024-01-06T08:23:46;99044.28;;;10.53;100.00
23417;BME280;11881;42.432;25.632;2024-01-06T08:26:11;99036.25;;;10.62;100.00
23417;BME280;11881;42.432;25.632;2024-01-06T08:28:37;99046.63;;;10.65;100.00
23417;BME280;11881;42.432;25.632;2024-01-06T08:31:03;99040.16;;;10.68;100.00
23417;BME280;11881;42.432;25.632;2024-01-06T08:33:28;99034.53;;;10.71;100.00
23417;BME280;11881;42.432;25.632;2024-01-06T08:35:54;99042.41;;;10.73;100.00
23417;BME280;11881;42.432;25.632;2024-01-06T08:38:20;99038.59;;;10.75;100.00
23417;BME280;11881;42.432;25.632;2024-01-06T08:40:47;99032.53;;;10.83;100.00
23417;BME280;11881;42.432;25.632;2024-01-06T08:43:15;99040.09;;;10.87;100.00
23417;BME280;11881;42.432;25.632;2024-01-06T08:45:41;99036.44;;;10.88;100.00
23417;BME280;11881;42.432;25.632;2024-01-06T08:48:06;99036.97;;;11.02;100.00
23417;BME280;11881;42.432;25.632;2024-01-06T08:50:32;99041.38;;;11.11;100.00
23417;BME280;11881;42.432;25.632;2024-01-06T08:52:57;99040.94;;;11.15;100.00
23417;BME280;11881;42.432;25.632;2024-01-06T08:55:23;99035.69;;;11.24;100.00
23417;BME280;11881;42.432;25.632;2024-01-06T08:57:48;99033.38;;;11.38;100.00
23417;BME280;11881;42.432;25.632;2024-01-06T09:00:14;99036.66;;;11.50;100.00
23417;BME280;11881;42.432;25.632;2024-01-06T09:02:41;99033.34;;;11.66;100.00
23417;BME280;11881;42.432;25.632;2024-01-06T09:05:06;99035.63;;;11.79;100.00
23417;BME280;11881;42.432;25.632;2024-01-06T09:07:32;99026.63;;;11.80;100.00
23417;BME280;11881;42.432;25.632;2024-01-06T09:09:57;99027.41;;;11.90;100.00
23417;BME280;11881;42.432;25.632;2024-01-06T09:12:23;99023.13;;;11.97;100.00
23417;BME280;11881;42.432;25.632;2024-01-06T09:14:48;99025.47;;;12.18;100.00
23417;BME280;11881;42.432;25.632;2024-01-06T09:17:14;99018.06;;;12.30;100.00
23417;BME280;11881;42.432;25.632;2024-01-06T09:19:40;99008.19;;;12.56;100.00
23417;BME280;11881;42.432;25.632;2024-01-06T09:22:05;99000.91;;;12.66;100.00
23417;BME280;11881;42.432;25.632;2024-01-06T09:24:31;99005.34;;;12.58;100.00
23417;BME280;11881;42.432;25.632;2024-01-06T09:26:56;99003.19;;;12.53;100.00
23417;BME280;11881;42.432;25.632;2024-01-06T09:29:22;98995.28;;;12.51;100.00
23417;BME280;11881;42.432;25.632;2024-01-06T09:31:47;98998.09;;;12.42;100.00
23417;BME280;11881;42.432;25.632;2024-01-06T09:34:13;98990.13;;;12.24;100.00
23417;BME280;11881;42.432;25.632;2024-01-06T09:36:38;98993.34;;;12.10;100.00
23417;BME280;11881;42.432;25.632;2024-01-06T09:39:04;98993.94;;;12.21;100.00
23417;BME280;11881;42.432;25.632;2024-01-06T09:41:30;98980.53;;;12.39;100.00
23417;BME280;11881;42.432;25.632;2024-01-06T09:43:56;98985.56;;;12.42;100.00
23417;BME280;11881;42.432;25.632;2024-01-06T09:46:29;98980.22;;;12.42;100.00
23417;BME280;11881;42.432;25.632;2024-01-06T09:48:56;98968.22;;;12.46;100.00
23417;BME280;11881;42.432;25.632;2024-01-06T09:51:22;98961.09;;;12.55;100.00
23417;BME280;11881;42.432;25.632;2024-01-06T09:54:00;98952.78;;;12.58;100.00
23417;BME280;11881;42.432;25.632;2024-01-06T09:56:28;98944.25;;;12.63;100.00
23417;BME280;11881;42.432;25.632;2024-01-06T09:58:54;98944.25;;;12.63;100.00
23417;BME280;11881;42.432;25.632;2024-01-06T10:01:21;98928.91;;;12.65;100.00
23417;BME280;11881;42.432;25.632;2024-01-06T10:03:46;98921.56;;;12.67;100.00
23417;BME280;11881;42.432;25.632;2024-01-06T10:06:16;98921.91;;;12.72;100.00
23417;BME280;11881;42.432;25.632;2024-01-06T10:08:48;98911.22;;;12.72;100.00
23417;BME280;11881;42.432;25.632;2024-01-06T10:11:14;98920.75;;;12.74;100.00
23417;BME280;11881;42.432;25.632;2024-01-06T10:13:40;98920.56;;;12.68;100.00
23417;BME280;11881;42.432;25.632;2024-01-06T10:16:06;98910.88;;;12.67;100.00
23417;BME280;11881;42.432;25.632;2024-01-06T10:18:32;98902.53;;;12.70;100.00
23417;BME280;11881;42.432;25.632;2024-01-06T10:20:58;98913.72;;;12.73;100.00
23417;BME280;11881;42.432;25.632;2024-01-06T10:23:24;98907.25;;;12.76;100.00
23417;BME280;11881;42.432;25.632;2024-01-06T10:25:53;98903.75;;;12.84;100.00
23417;BME280;11881;42.432;25.632;2024-01-06T10:28:21;98892.81;;;12.69;100.00
23417;BME280;11881;42.432;25.632;2024-01-06T10:30:47;98894.00;;;12.74;100.00
23417;BME280;11881;42.432;25.632;2024-01-06T10:33:13;98891.22;;;12.84;100.00
23417;BME280;11881;42.432;25.632;2024-01-06T10:35:39;98881.03;;;12.88;100.00
23417;BME280;11881;42.432;25.632;2024-01-06T10:38:04;98883.19;;;12.84;100.00
23417;BME280;11881;42.432;25.632;2024-01-06T10:40:31;98872.19;;;12.87;100.00
23417;BME280;11881;42.432;25.632;2024-01-06T10:42:57;98869.16;;;12.90;100.00
23417;BME280;11881;42.432;25.632;2024-01-06T10:45:23;98863.66;;;12.92;100.00
23417;BME280;11881;42.432;25.632;2024-01-06T10:47:49;98868.69;;;13.03;100.00
23417;BME280;11881;42.432;25.632;2024-01-06T10:50:17;98865.69;;;13.06;100.00
23417;BME280;11881;42.432;25.632;2024-01-06T10:52:43;98854.84;;;13.08;100.00
23417;BME280;11881;42.432;25.632;2024-01-06T10:55:09;98866.06;;;13.11;100.00
23417;BME280;11881;42.432;25.632;2024-01-06T10:57:37;98855.69;;;13.16;100.00
23417;BME280;11881;42.432;25.632;2024-01-06T11:00:03;98848.00;;;13.21;100.00
23417;BME280;11881;42.432;25.632;2024-01-06T11:02:31;98860.84;;;13.10;100.00
23417;BME280;11881;42.432;25.632;2024-01-06T11:04:57;98861.00;;;13.08;100.00
23417;BME280;11881;42.432;25.632;2024-01-06T11:07:24;98856.50;;;13.09;100.00
23417;BME280;11881;42.432;25.632;2024-01-06T11:09:57;98852.69;;;13.11;100.00
23417;BME280;11881;42.432;25.632;2024-01-06T11:12:23;98842.97;;;13.02;100.00
23417;BME280;11881;42.432;25.632;2024-01-06T11:14:51;98836.59;;;13.03;100.00
23417;BME280;11881;42.432;25.632;2024-01-06T11:20:21;98830.28;;;13.12;100.00
23417;BME280;11881;42.432;25.632;2024-01-06T11:22:47;98828.25;;;13.14;100.00
23417;BME280;11881;42.432;25.632;2024-01-06T11:25:14;98831.44;;;13.18;100.00
23417;BME280;11881;42.432;25.632;2024-01-06T11:27:42;98831.13;;;13.04;100.00
23417;BME280;11881;42.432;25.632;2024-01-06T11:30:08;98825.75;;;13.04;100.00
23417;BME280;11881;42.432;25.632;2024-01-06T11:32:44;98824.44;;;13.33;100.00
23417;BME280;11881;42.432;25.632;2024-01-06T11:35:13;98821.78;;;13.41;100.00
23417;BME280;11881;42.432;25.632;2024-01-06T11:40:25;98817.09;;;13.27;100.00
23417;BME280;11881;42.432;25.632;2024-01-06T11:43:00;98801.38;;;13.24;100.00
23417;BME280;11881;42.432;25.632;2024-01-06T11:45:27;98804.84;;;13.08;100.00
23417;BME280;11881;42.432;25.632;2024-01-06T11:48:01;98799.03;;;13.21;100.00
23417;BME280;11881;42.432;25.632;2024-01-06T11:50:29;98789.47;;;13.18;100.00
23417;BME280;11881;42.432;25.632;2024-01-06T11:52:55;98782.97;;;13.21;100.00
23417;BME280;11881;42.432;25.632;2024-01-06T11:55:21;98778.28;;;13.15;100.00
23417;BME280;11881;42.432;25.632;2024-01-06T11:57:46;98772.59;;;13.18;100.00
23417;BME280;11881;42.432;25.632;2024-01-06T12:00:16;98771.41;;;13.20;100.00
23417;BME280;11881;42.432;25.632;2024-01-06T12:02:42;98771.59;;;13.19;100.00
23417;BME280;11881;42.432;25.632;2024-01-06T12:05:17;98771.47;;;13.28;100.00
23417;BME280;11881;42.432;25.632;2024-01-06T12:07:52;98774.63;;;13.32;100.00
23417;BME280;11881;42.432;25.632;2024-01-06T12:10:21;98768.13;;;13.35;100.00
23417;BME280;11881;42.432;25.632;2024-01-06T12:13:06;98766.94;;;13.29;100.00
23417;BME280;11881;42.432;25.632;2024-01-06T12:15:36;98760.75;;;13.28;100.00
23417;BME280;11881;42.432;25.632;2024-01-06T12:18:05;98760.91;;;13.27;100.00
23417;BME280;11881;42.432;25.632;2024-01-06T12:20:31;98767.56;;;13.39;100.00
23417;BME280;11881;42.432;25.632;2024-01-06T12:22:57;98771.25;;;13.38;100.00
23417;BME280;11881;42.432;25.632;2024-01-06T12:25:24;98771.13;;;13.40;100.00
23417;BME280;11881;42.432;25.632;2024-01-06T12:27:50;98779.13;;;13.31;100.00
23417;BME280;11881;42.432;25.632;2024-01-06T12:30:18;98780.31;;;13.29;100.00
23417;BME280;11881;42.432;25.632;2024-01-06T12:32:45;98788.31;;;13.37;100.00
23417;BME280;11881;42.432;25.632;2024-01-06T12:35:11;98788.16;;;13.30;100.00
23417;BME280;11881;42.432;25.632;2024-01-06T12:37:38;98784.31;;;13.33;100.00
23417;BME280;11881;42.432;25.632;2024-01-06T12:40:04;98772.78;;;13.24;100.00
23417;BME280;11881;42.432;25.632;2024-01-06T12:42:29;98775.28;;;13.18;100.00
23417;BME280;11881;42.432;25.632;2024-01-06T12:44:55;98779.94;;;13.16;100.00